Eizo Maru — JD2944 — position and weather

sailwx.info

Track history (hours):
 
Tides and Currents Weather Stations Pressure Air Temp Water Temp Dewpoint Dewpoint Depression Visibility Wind Speed Wind Dir Waves Ship Positions

Eizo Maru

Last reported at 2015-Feb-28 03:18 UTC. Time now 2015-Mar-04 08:34 UTC.
Position N 35°04' E 139°35'.

Length 80 m; draft 5 m.

Type: Tanker. MMSI: 431000976.

Date/timePositionNaut miles runAvg speedWind from/ knotsBaromVisibWave heightAir tempDewpointWater temp
2015-Feb-28 03:18N 35°04' E 139°35'1013.5
2015-Feb-28 02:33N 35°10' E 139°44'1211.7
2015-Feb-28 01:33N 35°22' E 139°42'9 9.5
2015-Feb-28 00:33N 35°31' E 139°46'0 0.0
2015-Feb-27 22:06N 35°31' E 139°46'2 3.9
2015-Feb-27 21:33N 35°30' E 139°49'7 7.1
2015-Feb-27 20:33N 35°23' E 139°46'1010.0
2015-Feb-27 19:33N 35°13' E 139°47'1111.5
2015-Feb-27 18:33N 35°03' E 139°41'5 0.1
2015-Feb-25 15:33N 35°04' E 139°35'1312.8
2015-Feb-25 14:33N 35°13' E 139°46'1212.0
2015-Feb-25 13:33N 35°25' E 139°43'8 0.3
2015-Feb-24 14:03N 35°28' E 139°52'713.1
2015-Feb-24 13:34N 35°24' E 139°46'1211.8
2015-Feb-24 12:33N 35°12' E 139°47'24311.4
2015-Feb-23 15:18N 34°05' E 135°03'4 5.4
2015-Feb-23 14:33N 34°07' E 135°07'0 0.0
2015-Feb-23 13:31N 34°07' E 135°07'0 0.0
2015-Feb-23 12:32N 34°07' E 135°07'0 0.0
2015-Feb-23 09:19N 34°07' E 135°07'0 0.6
2015-Feb-23 08:32N 34°08' E 135°07'1010.0
2015-Feb-23 07:31N 34°15' E 134°58'1513.4
2015-Feb-23 06:24N 34°27' E 135°10'1113.2
2015-Feb-23 05:32N 34°33' E 135°21'4 0.5
2015-Feb-22 22:32N 34°33' E 135°26'5 5.1
2015-Feb-22 21:33N 34°32' E 135°20'0 0.0
2015-Feb-22 20:31N 34°32' E 135°20'0 0.0
2015-Feb-22 19:25N 34°32' E 135°20'0 0.0
2015-Feb-22 18:25N 34°32' E 135°20'0 0.0
2015-Feb-22 17:31N 34°32' E 135°20'0 0.0
2015-Feb-22 16:25N 34°32' E 135°20'0 0.0
2015-Feb-22 14:31N 34°32' E 135°20'0 0.0
2015-Feb-22 12:07N 34°32' E 135°20'0 0.0
2015-Feb-22 11:25N 34°32' E 135°20'0 0.0
2015-Feb-22 05:31N 34°32' E 135°20'10 9.9
2015-Feb-22 04:33N 34°26' E 135°10'1413.2
2015-Feb-22 03:31N 34°16' E 134°59'1414.2
2015-Feb-22 02:34N 34°03' E 135°00'24511.1
2015-Feb-21 04:32N 35°20' E 139°43'1111.7
2015-Feb-21 03:33N 35°31' E 139°46'0 0.2
2015-Feb-21 02:33N 35°31' E 139°46'0 0.0
2015-Feb-21 01:33N 35°31' E 139°46'0 0.0
2015-Feb-21 00:33N 35°31' E 139°46'0 0.0
2015-Feb-20 23:33N 35°31' E 139°46'0 0.0
2015-Feb-20 22:33N 35°31' E 139°46'3 2.9
2015-Feb-20 21:33N 35°30' E 139°50'0 0.1
2015-Feb-20 16:29N 35°30' E 139°50'0 0.0
2015-Feb-20 14:23N 35°30' E 139°50'0 0.0
2015-Feb-20 08:05N 35°30' E 139°50'0 0.0
2015-Feb-20 06:32N 35°30' E 139°50'2 0.1
2015-Feb-19 11:26N 35°30' E 139°48'3 0.5
2015-Feb-19 06:12N 35°32' E 139°46'2 2.6
2015-Feb-19 05:32N 35°30' E 139°47'3 0.2
2015-Feb-18 10:23N 35°31' E 139°51'4 0.8
2015-Feb-18 05:18N 35°32' E 139°46'2 2.3
2015-Feb-18 04:33N 35°30' E 139°47'  
Track history (hours):
 
Tides and Currents Weather Stations Pressure Air Temp Water Temp Dewpoint Dewpoint Depression Visibility Wind Speed Wind Dir Waves Ship Positions

Eizo Maru

Last reported at 2015-Feb-28 03:18 UTC. Time now 2015-Mar-04 08:34 UTC.
Position N 35°04' E 139°35'.

Length 80 m; draft 5 m.

Type: Tanker. MMSI: 431000976.

Date/timePositionNaut miles runAvg speedWind from/ knotsBaromVisibWave heightAir tempDewpointWater temp
2015-Feb-28 03:18N 35°04' E 139°35'1013.5
2015-Feb-28 02:33N 35°10' E 139°44'1211.7
2015-Feb-28 01:33N 35°22' E 139°42'9 9.5
2015-Feb-28 00:33N 35°31' E 139°46'0 0.0
2015-Feb-27 22:06N 35°31' E 139°46'2 3.9
2015-Feb-27 21:33N 35°30' E 139°49'7 7.1
2015-Feb-27 20:33N 35°23' E 139°46'1010.0
2015-Feb-27 19:33N 35°13' E 139°47'1111.5
2015-Feb-27 18:33N 35°03' E 139°41'5 0.1
2015-Feb-25 15:33N 35°04' E 139°35'1312.8
2015-Feb-25 14:33N 35°13' E 139°46'1212.0
2015-Feb-25 13:33N 35°25' E 139°43'8 0.3
2015-Feb-24 14:03N 35°28' E 139°52'713.1
2015-Feb-24 13:34N 35°24' E 139°46'1211.8
2015-Feb-24 12:33N 35°12' E 139°47'24311.4
2015-Feb-23 15:18N 34°05' E 135°03'4 5.4
2015-Feb-23 14:33N 34°07' E 135°07'0 0.0
2015-Feb-23 13:31N 34°07' E 135°07'0 0.0
2015-Feb-23 12:32N 34°07' E 135°07'0 0.0
2015-Feb-23 09:19N 34°07' E 135°07'0 0.6
2015-Feb-23 08:32N 34°08' E 135°07'1010.0
2015-Feb-23 07:31N 34°15' E 134°58'1513.4
2015-Feb-23 06:24N 34°27' E 135°10'1113.2
2015-Feb-23 05:32N 34°33' E 135°21'4 0.5
2015-Feb-22 22:32N 34°33' E 135°26'5 5.1
2015-Feb-22 21:33N 34°32' E 135°20'0 0.0
2015-Feb-22 20:31N 34°32' E 135°20'0 0.0
2015-Feb-22 19:25N 34°32' E 135°20'0 0.0
2015-Feb-22 18:25N 34°32' E 135°20'0 0.0
2015-Feb-22 17:31N 34°32' E 135°20'0 0.0
2015-Feb-22 16:25N 34°32' E 135°20'0 0.0
2015-Feb-22 14:31N 34°32' E 135°20'0 0.0
2015-Feb-22 12:07N 34°32' E 135°20'0 0.0
2015-Feb-22 11:25N 34°32' E 135°20'0 0.0
2015-Feb-22 05:31N 34°32' E 135°20'10 9.9
2015-Feb-22 04:33N 34°26' E 135°10'1413.2
2015-Feb-22 03:31N 34°16' E 134°59'1414.2
2015-Feb-22 02:34N 34°03' E 135°00'24511.1
2015-Feb-21 04:32N 35°20' E 139°43'1111.7
2015-Feb-21 03:33N 35°31' E 139°46'0 0.2
2015-Feb-21 02:33N 35°31' E 139°46'0 0.0
2015-Feb-21 01:33N 35°31' E 139°46'0 0.0
2015-Feb-21 00:33N 35°31' E 139°46'0 0.0
2015-Feb-20 23:33N 35°31' E 139°46'0 0.0
2015-Feb-20 22:33N 35°31' E 139°46'3 2.9
2015-Feb-20 21:33N 35°30' E 139°50'0 0.1
2015-Feb-20 16:29N 35°30' E 139°50'0 0.0
2015-Feb-20 14:23N 35°30' E 139°50'0 0.0
2015-Feb-20 08:05N 35°30' E 139°50'0 0.0
2015-Feb-20 06:32N 35°30' E 139°50'2 0.1
2015-Feb-19 11:26N 35°30' E 139°48'3 0.5
2015-Feb-19 06:12N 35°32' E 139°46'2 2.6
2015-Feb-19 05:32N 35°30' E 139°47'3 0.2
2015-Feb-18 10:23N 35°31' E 139°51'4 0.8
2015-Feb-18 05:18N 35°32' E 139°46'2 2.3
2015-Feb-18 04:33N 35°30' E 139°47'  

Dump ship's entire track history